sensor_id;sensor_type;location;lat;lon;timestamp;P1;durP1;ratioP1;P2;durP2;ratioP2
16760;SDS011;8498;52.516;13.790;2022-12-07T00:01:24;4.33;;;2.97;;
16760;SDS011;8498;52.516;13.790;2022-12-07T00:06:50;5.87;;;3.73;;
16760;SDS011;8498;52.516;13.790;2022-12-07T00:12:14;6.27;;;3.70;;
16760;SDS011;8498;52.516;13.790;2022-12-07T00:17:36;10.83;;;4.90;;
16760;SDS011;8498;52.516;13.790;2022-12-07T00:22:58;13.83;;;4.73;;
16760;SDS011;8498;52.516;13.790;2022-12-07T00:28:21;17.50;;;6.60;;
16760;SDS011;8498;52.516;13.790;2022-12-07T00:33:44;15.93;;;7.20;;
16760;SDS011;8498;52.516;13.790;2022-12-07T00:39:07;20.20;;;6.37;;
16760;SDS011;8498;52.516;13.790;2022-12-07T00:44:30;18.50;;;6.73;;
16760;SDS011;8498;52.516;13.790;2022-12-07T00:49:52;15.80;;;7.53;;
16760;SDS011;8498;52.516;13.790;2022-12-07T00:55:15;16.23;;;7.13;;
16760;SDS011;8498;52.516;13.790;2022-12-07T01:00:38;15.23;;;6.07;;
16760;SDS011;8498;52.516;13.790;2022-12-07T01:06:02;17.87;;;7.50;;
16760;SDS011;8498;52.516;13.790;2022-12-07T01:11:25;16.23;;;6.70;;
16760;SDS011;8498;52.516;13.790;2022-12-07T01:16:51;16.03;;;6.40;;
16760;SDS011;8498;52.516;13.790;2022-12-07T01:22:13;14.73;;;6.10;;
16760;SDS011;8498;52.516;13.790;2022-12-07T01:27:36;15.73;;;6.13;;
16760;SDS011;8498;52.516;13.790;2022-12-07T01:32:59;12.83;;;6.37;;
16760;SDS011;8498;52.516;13.790;2022-12-07T01:38:21;16.27;;;6.13;;
16760;SDS011;8498;52.516;13.790;2022-12-07T01:49:29;16.20;;;6.23;;
16760;SDS011;8498;52.516;13.790;2022-12-07T01:55:04;11.70;;;5.90;;
16760;SDS011;8498;52.516;13.790;2022-12-07T02:00:30;12.43;;;5.77;;
16760;SDS011;8498;52.516;13.790;2022-12-07T02:05:52;13.20;;;6.07;;
16760;SDS011;8498;52.516;13.790;2022-12-07T02:11:16;14.60;;;5.80;;
16760;SDS011;8498;52.516;13.790;2022-12-07T02:22:29;12.00;;;5.40;;
16760;SDS011;8498;52.516;13.790;2022-12-07T02:28:01;13.00;;;5.27;;
16760;SDS011;8498;52.516;13.790;2022-12-07T02:33:28;12.50;;;5.87;;
16760;SDS011;8498;52.516;13.790;2022-12-07T02:38:58;12.07;;;5.30;;
16760;SDS011;8498;52.516;13.790;2022-12-07T02:44:25;11.13;;;5.60;;
16760;SDS011;8498;52.516;13.790;2022-12-07T02:49:50;11.37;;;5.30;;
16760;SDS011;8498;52.516;13.790;2022-12-07T02:55:14;11.43;;;5.47;;
16760;SDS011;8498;52.516;13.790;2022-12-07T03:00:45;11.87;;;5.30;;
16760;SDS011;8498;52.516;13.790;2022-12-07T03:06:36;12.97;;;4.93;;
16760;SDS011;8498;52.516;13.790;2022-12-07T03:12:16;12.77;;;4.93;;
16760;SDS011;8498;52.516;13.790;2022-12-07T03:17:44;10.90;;;4.80;;
16760;SDS011;8498;52.516;13.790;2022-12-07T03:23:10;10.70;;;5.30;;
16760;SDS011;8498;52.516;13.790;2022-12-07T03:28:35;11.00;;;4.77;;
16760;SDS011;8498;52.516;13.790;2022-12-07T03:39:53;10.53;;;4.67;;
16760;SDS011;8498;52.516;13.790;2022-12-07T03:45:43;8.67;;;4.70;;
16760;SDS011;8498;52.516;13.790;2022-12-07T03:56:43;9.10;;;4.57;;
16760;SDS011;8498;52.516;13.790;2022-12-07T04:02:08;9.30;;;4.90;;
16760;SDS011;8498;52.516;13.790;2022-12-07T04:07:35;8.77;;;4.43;;
16760;SDS011;8498;52.516;13.790;2022-12-07T04:12:57;11.70;;;4.60;;
16760;SDS011;8498;52.516;13.790;2022-12-07T04:18:20;9.03;;;4.97;;
16760;SDS011;8498;52.516;13.790;2022-12-07T04:23:42;9.53;;;5.13;;
16760;SDS011;8498;52.516;13.790;2022-12-07T04:29:04;11.03;;;4.90;;
16760;SDS011;8498;52.516;13.790;2022-12-07T04:34:28;9.90;;;4.70;;
16760;SDS011;8498;52.516;13.790;2022-12-07T04:39:50;10.30;;;4.80;;
16760;SDS011;8498;52.516;13.790;2022-12-07T04:45:13;11.70;;;5.50;;
16760;SDS011;8498;52.516;13.790;2022-12-07T04:50:35;9.83;;;4.47;;
16760;SDS011;8498;52.516;13.790;2022-12-07T04:56:07;13.73;;;5.77;;
16760;SDS011;8498;52.516;13.790;2022-12-07T05:01:29;12.50;;;6.07;;
16760;SDS011;8498;52.516;13.790;2022-12-07T05:06:52;18.73;;;6.43;;
16760;SDS011;8498;52.516;13.790;2022-12-07T05:12:15;16.37;;;7.10;;
16760;SDS011;8498;52.516;13.790;2022-12-07T05:17:37;19.20;;;7.77;;
16760;SDS011;8498;52.516;13.790;2022-12-07T05:23:00;18.40;;;7.03;;
16760;SDS011;8498;52.516;13.790;2022-12-07T05:28:23;15.43;;;7.67;;
16760;SDS011;8498;52.516;13.790;2022-12-07T05:33:46;21.03;;;7.90;;
16760;SDS011;8498;52.516;13.790;2022-12-07T05:39:08;17.73;;;7.47;;
16760;SDS011;8498;52.516;13.790;2022-12-07T05:44:31;21.90;;;7.87;;
16760;SDS011;8498;52.516;13.790;2022-12-07T05:49:53;18.90;;;7.77;;
16760;SDS011;8498;52.516;13.790;2022-12-07T05:55:16;18.93;;;7.73;;
16760;SDS011;8498;52.516;13.790;2022-12-07T06:00:39;17.10;;;7.10;;
16760;SDS011;8498;52.516;13.790;2022-12-07T06:06:01;23.30;;;8.50;;
16760;SDS011;8498;52.516;13.790;2022-12-07T06:11:23;27.43;;;8.17;;
16760;SDS011;8498;52.516;13.790;2022-12-07T06:17:05;20.40;;;8.67;;
16760;SDS011;8498;52.516;13.790;2022-12-07T06:22:27;24.10;;;8.90;;
16760;SDS011;8498;52.516;13.790;2022-12-07T06:27:50;26.53;;;9.93;;
16760;SDS011;8498;52.516;13.790;2022-12-07T06:33:13;30.90;;;10.27;;
16760;SDS011;8498;52.516;13.790;2022-12-07T06:38:35;30.27;;;10.50;;
16760;SDS011;8498;52.516;13.790;2022-12-07T06:43:58;33.03;;;10.07;;
16760;SDS011;8498;52.516;13.790;2022-12-07T06:49:20;27.27;;;10.57;;
16760;SDS011;8498;52.516;13.790;2022-12-07T06:54:43;29.60;;;10.20;;
16760;SDS011;8498;52.516;13.790;2022-12-07T07:00:05;34.97;;;11.57;;
16760;SDS011;8498;52.516;13.790;2022-12-07T07:05:28;24.67;;;10.17;;
16760;SDS011;8498;52.516;13.790;2022-12-07T07:10:50;35.50;;;10.57;;
16760;SDS011;8498;52.516;13.790;2022-12-07T07:16:13;30.07;;;10.10;;
16760;SDS011;8498;52.516;13.790;2022-12-07T07:21:36;28.03;;;11.13;;
16760;SDS011;8498;52.516;13.790;2022-12-07T07:26:58;25.83;;;9.27;;
16760;SDS011;8498;52.516;13.790;2022-12-07T07:32:21;30.37;;;10.40;;
16760;SDS011;8498;52.516;13.790;2022-12-07T07:37:44;28.33;;;10.83;;
16760;SDS011;8498;52.516;13.790;2022-12-07T07:43:06;31.20;;;10.87;;
16760;SDS011;8498;52.516;13.790;2022-12-07T07:48:29;32.60;;;12.03;;
16760;SDS011;8498;52.516;13.790;2022-12-07T07:53:51;31.07;;;10.47;;
16760;SDS011;8498;52.516;13.790;2022-12-07T07:59:14;39.93;;;11.53;;
16760;SDS011;8498;52.516;13.790;2022-12-07T08:04:36;28.43;;;10.83;;
16760;SDS011;8498;52.516;13.790;2022-12-07T08:09:59;27.70;;;10.40;;
16760;SDS011;8498;52.516;13.790;2022-12-07T08:15:22;32.47;;;10.37;;
16760;SDS011;8498;52.516;13.790;2022-12-07T08:20:45;27.20;;;10.43;;
16760;SDS011;8498;52.516;13.790;2022-12-07T08:26:08;25.23;;;8.70;;
16760;SDS011;8498;52.516;13.790;2022-12-07T08:31:35;17.23;;;7.60;;
16760;SDS011;8498;52.516;13.790;2022-12-07T08:36:58;16.97;;;7.80;;
16760;SDS011;8498;52.516;13.790;2022-12-07T08:42:21;15.80;;;6.43;;
16760;SDS011;8498;52.516;13.790;2022-12-07T08:47:56;15.40;;;6.40;;
16760;SDS011;8498;52.516;13.790;2022-12-07T08:53:23;9.83;;;4.90;;
16760;SDS011;8498;52.516;13.790;2022-12-07T08:58:46;9.90;;;5.27;;
16760;SDS011;8498;52.516;13.790;2022-12-07T09:04:10;9.13;;;4.87;;
16760;SDS011;8498;52.516;13.790;2022-12-07T09:09:32;8.47;;;4.50;;
16760;SDS011;8498;52.516;13.790;2022-12-07T09:14:55;10.93;;;4.00;;
16760;SDS011;8498;52.516;13.790;2022-12-07T09:20:18;6.50;;;3.33;;
16760;SDS011;8498;52.516;13.790;2022-12-07T09:25:48;6.03;;;3.93;;
16760;SDS011;8498;52.516;13.790;2022-12-07T09:31:10;6.13;;;3.50;;
16760;SDS011;8498;52.516;13.790;2022-12-07T09:36:44;3.97;;;3.03;;
16760;SDS011;8498;52.516;13.790;2022-12-07T09:42:07;6.63;;;3.03;;
16760;SDS011;8498;52.516;13.790;2022-12-07T09:47:30;6.90;;;3.80;;
16760;SDS011;8498;52.516;13.790;2022-12-07T09:53:04;3.47;;;2.67;;
16760;SDS011;8498;52.516;13.790;2022-12-07T09:58:31;4.57;;;2.40;;
16760;SDS011;8498;52.516;13.790;2022-12-07T10:03:59;3.97;;;2.60;;
16760;SDS011;8498;52.516;13.790;2022-12-07T10:09:27;3.60;;;2.00;;
16760;SDS011;8498;52.516;13.790;2022-12-07T10:15:00;3.30;;;2.27;;
16760;SDS011;8498;52.516;13.790;2022-12-07T10:20:39;2.70;;;2.20;;
16760;SDS011;8498;52.516;13.790;2022-12-07T10:26:25;2.30;;;2.10;;
16760;SDS011;8498;52.516;13.790;2022-12-07T10:31:52;2.40;;;2.20;;
16760;SDS011;8498;52.516;13.790;2022-12-07T10:37:19;2.77;;;2.50;;
16760;SDS011;8498;52.516;13.790;2022-12-07T10:42:42;3.17;;;2.13;;
16760;SDS011;8498;52.516;13.790;2022-12-07T10:53:57;2.97;;;2.13;;
16760;SDS011;8498;52.516;13.790;2022-12-07T10:59:44;1.87;;;1.70;;
16760;SDS011;8498;52.516;13.790;2022-12-07T11:16:16;3.30;;;2.23;;
16760;SDS011;8498;52.516;13.790;2022-12-07T11:21:53;4.13;;;1.90;;
16760;SDS011;8498;52.516;13.790;2022-12-07T11:44:06;2.70;;;2.50;;
16760;SDS011;8498;52.516;13.790;2022-12-07T11:55:16;5.40;;;2.97;;
16760;SDS011;8498;52.516;13.790;2022-12-07T12:00:43;3.57;;;2.73;;
16760;SDS011;8498;52.516;13.790;2022-12-07T12:06:06;5.73;;;2.30;;
16760;SDS011;8498;52.516;13.790;2022-12-07T12:28:26;3.57;;;2.90;;
16760;SDS011;8498;52.516;13.790;2022-12-07T12:33:54;9.13;;;4.30;;
16760;SDS011;8498;52.516;13.790;2022-12-07T12:39:19;4.40;;;3.40;;
16760;SDS011;8498;52.516;13.790;2022-12-07T12:45:02;7.27;;;3.40;;
16760;SDS011;8498;52.516;13.790;2022-12-07T12:55:58;9.20;;;2.93;;
16760;SDS011;8498;52.516;13.790;2022-12-07T13:01:40;7.83;;;2.90;;
16760;SDS011;8498;52.516;13.790;2022-12-07T13:07:08;3.87;;;3.17;;
16760;SDS011;8498;52.516;13.790;2022-12-07T13:12:33;4.73;;;3.40;;
16760;SDS011;8498;52.516;13.790;2022-12-07T13:17:57;6.60;;;2.90;;
16760;SDS011;8498;52.516;13.790;2022-12-07T13:28:51;5.07;;;4.07;;
16760;SDS011;8498;52.516;13.790;2022-12-07T13:40:00;7.63;;;3.43;;
16760;SDS011;8498;52.516;13.790;2022-12-07T13:45:38;3.20;;;2.90;;
16760;SDS011;8498;52.516;13.790;2022-12-07T13:51:18;6.83;;;2.40;;
16760;SDS011;8498;52.516;13.790;2022-12-07T13:56:49;4.97;;;2.60;;
16760;SDS011;8498;52.516;13.790;2022-12-07T14:08:00;6.83;;;2.00;;
16760;SDS011;8498;52.516;13.790;2022-12-07T14:13:31;2.87;;;2.10;;
16760;SDS011;8498;52.516;13.790;2022-12-07T14:18:58;4.20;;;1.80;;
16760;SDS011;8498;52.516;13.790;2022-12-07T14:24:23;7.73;;;2.23;;
16760;SDS011;8498;52.516;13.790;2022-12-07T14:29:45;3.83;;;2.83;;
16760;SDS011;8498;52.516;13.790;2022-12-07T14:35:10;5.27;;;2.30;;
16760;SDS011;8498;52.516;13.790;2022-12-07T14:40:34;3.83;;;2.30;;
16760;SDS011;8498;52.516;13.790;2022-12-07T14:45:56;8.87;;;2.30;;
16760;SDS011;8498;52.516;13.790;2022-12-07T14:51:19;5.77;;;2.40;;
16760;SDS011;8498;52.516;13.790;2022-12-07T14:57:01;5.93;;;2.57;;
16760;SDS011;8498;52.516;13.790;2022-12-07T15:02:24;10.23;;;2.57;;
16760;SDS011;8498;52.516;13.790;2022-12-07T15:07:46;4.17;;;2.20;;
16760;SDS011;8498;52.516;13.790;2022-12-07T15:13:10;5.73;;;2.40;;
16760;SDS011;8498;52.516;13.790;2022-12-07T15:18:51;4.43;;;2.20;;
16760;SDS011;8498;52.516;13.790;2022-12-07T15:24:33;5.30;;;2.40;;
16760;SDS011;8498;52.516;13.790;2022-12-07T15:29:55;6.57;;;2.10;;
16760;SDS011;8498;52.516;13.790;2022-12-07T15:35:18;4.37;;;2.40;;
16760;SDS011;8498;52.516;13.790;2022-12-07T15:40:41;7.73;;;3.90;;
16760;SDS011;8498;52.516;13.790;2022-12-07T15:46:03;9.63;;;2.90;;
16760;SDS011;8498;52.516;13.790;2022-12-07T15:51:26;7.10;;;3.23;;
16760;SDS011;8498;52.516;13.790;2022-12-07T15:56:49;5.90;;;2.20;;
16760;SDS011;8498;52.516;13.790;2022-12-07T16:02:12;8.00;;;2.30;;
16760;SDS011;8498;52.516;13.790;2022-12-07T16:07:35;6.33;;;2.40;;
16760;SDS011;8498;52.516;13.790;2022-12-07T16:12:57;6.03;;;2.20;;
16760;SDS011;8498;52.516;13.790;2022-12-07T16:18:19;5.77;;;2.00;;
16760;SDS011;8498;52.516;13.790;2022-12-07T16:23:42;4.53;;;2.70;;
16760;SDS011;8498;52.516;13.790;2022-12-07T16:29:04;7.43;;;2.27;;
16760;SDS011;8498;52.516;13.790;2022-12-07T16:34:28;5.80;;;2.70;;
16760;SDS011;8498;52.516;13.790;2022-12-07T16:39:50;5.10;;;1.23;;
16760;SDS011;8498;52.516;13.790;2022-12-07T16:45:12;1.17;;;1.10;;
16760;SDS011;8498;52.516;13.790;2022-12-07T16:50:42;3.33;;;1.80;;
16760;SDS011;8498;52.516;13.790;2022-12-07T16:56:12;3.30;;;1.70;;
16760;SDS011;8498;52.516;13.790;2022-12-07T17:01:38;4.67;;;2.40;;
16760;SDS011;8498;52.516;13.790;2022-12-07T17:07:01;4.03;;;2.30;;
16760;SDS011;8498;52.516;13.790;2022-12-07T17:12:23;6.13;;;2.90;;
16760;SDS011;8498;52.516;13.790;2022-12-07T17:17:47;9.80;;;3.50;;
16760;SDS011;8498;52.516;13.790;2022-12-07T17:23:14;9.87;;;2.77;;
16760;SDS011;8498;52.516;13.790;2022-12-07T17:28:37;3.47;;;2.67;;
16760;SDS011;8498;52.516;13.790;2022-12-07T17:34:01;7.77;;;2.87;;
16760;SDS011;8498;52.516;13.790;2022-12-07T17:39:24;4.43;;;2.83;;
16760;SDS011;8498;52.516;13.790;2022-12-07T17:44:46;5.90;;;2.60;;
16760;SDS011;8498;52.516;13.790;2022-12-07T17:50:09;6.30;;;3.20;;
16760;SDS011;8498;52.516;13.790;2022-12-07T17:55:32;7.77;;;3.27;;
16760;SDS011;8498;52.516;13.790;2022-12-07T18:01:14;6.83;;;2.97;;
16760;SDS011;8498;52.516;13.790;2022-12-07T18:06:44;7.40;;;2.90;;
16760;SDS011;8498;52.516;13.790;2022-12-07T18:12:13;4.57;;;2.97;;
16760;SDS011;8498;52.516;13.790;2022-12-07T18:17:36;5.30;;;2.50;;
16760;SDS011;8498;52.516;13.790;2022-12-07T18:22:58;6.10;;;2.43;;
16760;SDS011;8498;52.516;13.790;2022-12-07T18:28:21;3.50;;;2.90;;
16760;SDS011;8498;52.516;13.790;2022-12-07T18:33:43;11.87;;;3.07;;
16760;SDS011;8498;52.516;13.790;2022-12-07T18:39:09;8.87;;;2.73;;
16760;SDS011;8498;52.516;13.790;2022-12-07T18:44:31;7.87;;;2.57;;
16760;SDS011;8498;52.516;13.790;2022-12-07T18:49:53;7.03;;;2.70;;
16760;SDS011;8498;52.516;13.790;2022-12-07T18:55:15;6.20;;;3.30;;
16760;SDS011;8498;52.516;13.790;2022-12-07T19:00:38;6.80;;;3.00;;
16760;SDS011;8498;52.516;13.790;2022-12-07T19:06:04;8.23;;;2.80;;
16760;SDS011;8498;52.516;13.790;2022-12-07T19:11:31;12.00;;;3.30;;
16760;SDS011;8498;52.516;13.790;2022-12-07T19:17:12;11.90;;;4.30;;
16760;SDS011;8498;52.516;13.790;2022-12-07T19:22:35;7.07;;;3.90;;
16760;SDS011;8498;52.516;13.790;2022-12-07T19:27:57;9.73;;;5.57;;
16760;SDS011;8498;52.516;13.790;2022-12-07T19:33:21;4.70;;;3.33;;
16760;SDS011;8498;52.516;13.790;2022-12-07T19:38:43;6.57;;;3.33;;
16760;SDS011;8498;52.516;13.790;2022-12-07T19:44:07;10.30;;;3.33;;
16760;SDS011;8498;52.516;13.790;2022-12-07T19:49:33;8.27;;;3.60;;
16760;SDS011;8498;52.516;13.790;2022-12-07T19:54:56;8.57;;;3.43;;
16760;SDS011;8498;52.516;13.790;2022-12-07T20:00:19;7.17;;;4.03;;
16760;SDS011;8498;52.516;13.790;2022-12-07T20:05:41;9.40;;;4.13;;
16760;SDS011;8498;52.516;13.790;2022-12-07T20:11:04;8.17;;;3.50;;
16760;SDS011;8498;52.516;13.790;2022-12-07T20:16:46;9.37;;;3.90;;
16760;SDS011;8498;52.516;13.790;2022-12-07T20:22:09;10.27;;;3.80;;
16760;SDS011;8498;52.516;13.790;2022-12-07T20:27:32;7.90;;;3.77;;
16760;SDS011;8498;52.516;13.790;2022-12-07T20:32:54;11.50;;;4.30;;
16760;SDS011;8498;52.516;13.790;2022-12-07T20:38:17;10.30;;;4.93;;
16760;SDS011;8498;52.516;13.790;2022-12-07T20:43:39;10.70;;;4.13;;
16760;SDS011;8498;52.516;13.790;2022-12-07T20:49:02;6.00;;;3.27;;
16760;SDS011;8498;52.516;13.790;2022-12-07T20:54:24;3.93;;;2.80;;
16760;SDS011;8498;52.516;13.790;2022-12-07T20:59:46;6.00;;;3.03;;
16760;SDS011;8498;52.516;13.790;2022-12-07T21:05:09;10.87;;;3.77;;
16760;SDS011;8498;52.516;13.790;2022-12-07T21:10:31;14.57;;;4.90;;
16760;SDS011;8498;52.516;13.790;2022-12-07T21:15:54;11.57;;;4.50;;
16760;SDS011;8498;52.516;13.790;2022-12-07T21:21:17;12.13;;;4.20;;
16760;SDS011;8498;52.516;13.790;2022-12-07T21:26:41;11.17;;;4.00;;
16760;SDS011;8498;52.516;13.790;2022-12-07T21:32:03;11.63;;;4.27;;
16760;SDS011;8498;52.516;13.790;2022-12-07T21:37:26;5.90;;;3.67;;
16760;SDS011;8498;52.516;13.790;2022-12-07T21:42:52;6.57;;;3.50;;
16760;SDS011;8498;52.516;13.790;2022-12-07T21:48:15;4.97;;;3.20;;
16760;SDS011;8498;52.516;13.790;2022-12-07T21:53:38;6.83;;;3.53;;
16760;SDS011;8498;52.516;13.790;2022-12-07T21:59:05;9.90;;;3.40;;
16760;SDS011;8498;52.516;13.790;2022-12-07T22:04:30;5.60;;;3.37;;
16760;SDS011;8498;52.516;13.790;2022-12-07T22:09:52;8.47;;;3.87;;
16760;SDS011;8498;52.516;13.790;2022-12-07T22:15:15;5.47;;;3.33;;
16760;SDS011;8498;52.516;13.790;2022-12-07T22:20:37;10.93;;;4.00;;
16760;SDS011;8498;52.516;13.790;2022-12-07T22:26:03;8.87;;;3.63;;
16760;SDS011;8498;52.516;13.790;2022-12-07T22:31:26;5.97;;;3.50;;
16760;SDS011;8498;52.516;13.790;2022-12-07T22:36:50;6.97;;;4.50;;
16760;SDS011;8498;52.516;13.790;2022-12-07T22:42:13;15.17;;;4.83;;
16760;SDS011;8498;52.516;13.790;2022-12-07T22:47:35;8.90;;;4.50;;
16760;SDS011;8498;52.516;13.790;2022-12-07T22:52:58;7.77;;;4.53;;
16760;SDS011;8498;52.516;13.790;2022-12-07T22:58:21;12.27;;;4.47;;
16760;SDS011;8498;52.516;13.790;2022-12-07T23:03:46;9.97;;;4.77;;
16760;SDS011;8498;52.516;13.790;2022-12-07T23:09:10;8.63;;;4.53;;
16760;SDS011;8498;52.516;13.790;2022-12-07T23:14:34;10.93;;;4.80;;
16760;SDS011;8498;52.516;13.790;2022-12-07T23:19:59;8.33;;;4.80;;
16760;SDS011;8498;52.516;13.790;2022-12-07T23:25:21;7.30;;;4.53;;
16760;SDS011;8498;52.516;13.790;2022-12-07T23:30:44;9.80;;;4.40;;
16760;SDS011;8498;52.516;13.790;2022-12-07T23:36:20;10.40;;;4.20;;
16760;SDS011;8498;52.516;13.790;2022-12-07T23:41:47;11.50;;;4.63;;
16760;SDS011;8498;52.516;13.790;2022-12-07T23:47:11;8.37;;;4.53;;
16760;SDS011;8498;52.516;13.790;2022-12-07T23:52:33;14.60;;;5.17;;
16760;SDS011;8498;52.516;13.790;2022-12-07T23:57:56;9.03;;;4.20;;
